Sign-in with your pilot id or email, or register

ICAO: LFPG Name / Country: Paris - Charles-de-Gaulle / France
Latitude: 49.0128 Longitude: 2.55
Total Arrivals:
Strict Standards: Non-static method AirportData::getarrflights() should not be called statically, assuming $this from incompatible context in /var/www/customers/vh-7192/web/home/phpvms/core/templates/airport_info.tpl on line 18
1
Total Departures:
Strict Standards: Non-static method AirportData::getdeptflights() should not be called statically, assuming $this from incompatible context in /var/www/customers/vh-7192/web/home/phpvms/core/templates/airport_info.tpl on line 21
0
Latest Arrival: MTA11P (CHART (LHBP-LFPG) Tibor Berces Latest Departure: (-)
Metar: LFPG 011430Z 33012KT 9999 SCT019 SCT110 08/05 Q1020 TEMPO 4000 -SHRA
More info

Charts for LFPG


NOTAM


Warning: file_get_contents(http://api.vateud.net/notams/LFPG.json): failed to open stream: Redirection limit reached, aborting in /var/www/customers/vh-7192/web/home/phpvms/core/common/NOTAMSData.class.php on line 18

Warning: Invalid argument supplied for foreach() in /var/www/customers/vh-7192/web/home/phpvms/core/common/NOTAMSData.class.php on line 22

Paris - Charles-de-Gaulle